createdAt,value
2022-11-20T00:01:25.980Z,100.00
2022-11-20T00:03:54.695Z,100.00
2022-11-20T00:06:22.843Z,100.00
2022-11-20T00:08:50.590Z,100.00
2022-11-20T00:11:23.253Z,100.00
2022-11-20T00:13:53.322Z,100.00
2022-11-20T00:16:23.251Z,100.00
2022-11-20T00:18:50.553Z,100.00
2022-11-20T00:21:22.891Z,100.00
2022-11-20T00:23:51.201Z,100.00
2022-11-20T00:26:19.986Z,100.00
2022-11-20T00:28:55.397Z,100.00
2022-11-20T00:31:23.016Z,100.00
2022-11-20T00:33:50.344Z,100.00
2022-11-20T00:36:22.461Z,100.00
2022-11-20T00:38:53.643Z,100.00
2022-11-20T00:41:20.953Z,100.00
2022-11-20T00:43:47.895Z,100.00
2022-11-20T00:46:15.908Z,100.00
2022-11-20T00:48:43.203Z,100.00
2022-11-20T00:51:12.122Z,100.00
2022-11-20T00:53:38.980Z,100.00
2022-11-20T00:56:08.809Z,100.00
2022-11-20T00:58:38.069Z,100.00
2022-11-20T01:01:06.621Z,100.00
2022-11-20T01:03:34.748Z,100.00
2022-11-20T01:06:08.887Z,99.34
2022-11-20T01:08:36.696Z,99.80
2022-11-20T01:11:15.533Z,98.62
2022-11-20T01:13:44.241Z,99.26
2022-11-20T01:16:20.601Z,99.48
2022-11-20T01:18:50.224Z,99.04
2022-11-20T01:21:22.604Z,97.71
2022-11-20T01:23:50.342Z,96.42
2022-11-20T01:26:23.382Z,95.51
2022-11-20T01:28:50.960Z,95.02
2022-11-20T01:31:23.443Z,96.18
2022-11-20T01:33:52.620Z,95.73
2022-11-20T01:36:21.182Z,97.37
2022-11-20T01:38:48.216Z,99.25
2022-11-20T01:41:36.714Z,100.00
2022-11-20T01:44:05.229Z,100.00
2022-11-20T01:46:34.805Z,99.68
2022-11-20T01:49:09.026Z,96.35
2022-11-20T01:51:56.897Z,98.14
2022-11-20T01:54:31.601Z,96.73
2022-11-20T01:57:01.709Z,95.22
2022-11-20T01:59:30.768Z,95.06
2022-11-20T02:01:58.358Z,95.51
2022-11-20T02:04:25.912Z,97.58
2022-11-20T02:07:03.662Z,97.56
2022-11-20T02:09:30.645Z,93.37
2022-11-20T02:11:58.805Z,95.22
2022-11-20T02:14:26.581Z,93.33
2022-11-20T02:16:55.493Z,90.85
2022-11-20T02:19:29.447Z,92.96
2022-11-20T02:22:03.890Z,92.42
2022-11-20T02:24:31.262Z,90.87
2022-11-20T02:27:13.434Z,91.80
2022-11-20T02:29:54.114Z,90.71
2022-11-20T02:32:22.392Z,91.14
2022-11-20T02:34:49.547Z,92.54
2022-11-20T02:37:17.193Z,94.04
2022-11-20T02:39:47.126Z,89.45
2022-11-20T02:42:14.314Z,89.68
2022-11-20T02:44:41.259Z,88.03
2022-11-20T02:47:08.594Z,88.96
2022-11-20T02:49:35.785Z,89.84
2022-11-20T02:52:02.709Z,88.61
2022-11-20T02:54:29.612Z,87.87
2022-11-20T02:56:56.512Z,88.44
2022-11-20T02:59:23.664Z,90.77
2022-11-20T03:01:50.736Z,92.02
2022-11-20T03:04:17.689Z,93.01
2022-11-20T03:06:44.749Z,91.77
2022-11-20T03:09:11.690Z,90.00
2022-11-20T03:11:38.562Z,88.52
2022-11-20T03:14:06.072Z,87.39
2022-11-20T03:16:33.952Z,87.09
2022-11-20T03:19:01.261Z,89.42
2022-11-20T03:21:28.352Z,90.84
2022-11-20T03:23:55.718Z,91.48
2022-11-20T03:26:25.224Z,92.22
2022-11-20T03:28:57.819Z,91.18
2022-11-20T03:31:27.502Z,91.90
2022-11-20T03:33:54.602Z,90.56
2022-11-20T03:36:22.280Z,89.23
2022-11-20T03:38:50.101Z,88.23
2022-11-20T03:41:23.060Z,88.52
2022-11-20T03:43:58.391Z,87.45
2022-11-20T03:46:26.094Z,87.14
2022-11-20T03:48:53.320Z,87.50
2022-11-20T03:51:25.803Z,88.05
2022-11-20T03:53:55.365Z,87.04
2022-11-20T03:56:25.640Z,85.88
2022-11-20T03:58:52.551Z,86.29
2022-11-20T04:01:24.647Z,85.97
2022-11-20T04:03:54.244Z,86.24
2022-11-20T04:06:30.461Z,86.07
2022-11-20T04:08:58.923Z,85.87
2022-11-20T04:11:31.552Z,87.31
2022-11-20T04:14:00.874Z,89.09
2022-11-20T04:16:30.847Z,89.92
2022-11-20T04:19:01.886Z,91.35
2022-11-20T04:21:28.893Z,91.43
2022-11-20T04:23:56.680Z,91.17
2022-11-20T04:26:25.580Z,91.85
2022-11-20T04:28:52.704Z,91.39
2022-11-20T04:31:23.943Z,91.40
2022-11-20T04:33:51.232Z,92.40
2022-11-20T04:36:20.789Z,91.77
2022-11-20T04:38:51.351Z,91.73
2022-11-20T04:41:22.729Z,91.51
2022-11-20T04:43:59.825Z,91.45
2022-11-20T04:46:28.377Z,91.61
2022-11-20T04:48:55.658Z,91.60
2022-11-20T04:51:22.981Z,91.67
2022-11-20T04:53:50.171Z,93.50
2022-11-20T04:56:17.473Z,95.25
2022-11-20T04:58:44.383Z,95.92
2022-11-20T05:01:17.592Z,94.95
2022-11-20T05:03:45.264Z,94.92
2022-11-20T05:06:14.685Z,94.18
2022-11-20T05:08:42.270Z,93.69
2022-11-20T05:11:12.181Z,93.02
2022-11-20T05:13:39.551Z,91.83
2022-11-20T05:16:10.079Z,92.08
2022-11-20T05:18:38.154Z,90.57
2022-11-20T05:21:06.404Z,89.63
2022-11-20T05:23:34.792Z,89.42
2022-11-20T05:26:02.860Z,89.94
2022-11-20T05:28:30.923Z,89.56
2022-11-20T05:31:04.781Z,91.49
2022-11-20T05:33:31.693Z,91.46
2022-11-20T05:36:02.186Z,91.47
2022-11-20T05:38:29.026Z,91.44
2022-11-20T05:40:55.915Z,89.44
2022-11-20T05:43:22.766Z,89.71
2022-11-20T05:45:56.145Z,88.67
2022-11-20T05:48:23.102Z,89.10
2022-11-20T05:50:50.160Z,88.98
2022-11-20T05:53:17.112Z,89.94
2022-11-20T05:55:44.050Z,89.98
2022-11-20T05:58:11.066Z,89.51
2022-11-20T06:00:38.477Z,89.45
2022-11-20T06:03:05.503Z,88.69
2022-11-20T06:05:32.599Z,88.24
2022-11-20T06:08:01.924Z,86.83
2022-11-20T06:10:28.767Z,86.33
2022-11-20T06:12:59.058Z,85.58
2022-11-20T06:15:26.490Z,84.88
2022-11-20T06:17:56.702Z,83.51
2022-11-20T06:20:23.560Z,83.16
2022-11-20T06:22:50.438Z,83.48
2022-11-20T06:25:17.350Z,83.45
2022-11-20T06:27:44.192Z,84.34
2022-11-20T06:30:11.690Z,83.50
2022-11-20T06:32:38.549Z,84.10
2022-11-20T06:35:05.820Z,84.78
2022-11-20T06:37:32.695Z,82.39
2022-11-20T06:39:59.522Z,81.46
2022-11-20T06:42:26.445Z,81.45
2022-11-20T06:44:53.300Z,81.05
2022-11-20T06:47:20.167Z,81.34
2022-11-20T06:49:46.985Z,82.27
2022-11-20T06:52:13.974Z,79.69
2022-11-20T06:54:40.853Z,78.61
2022-11-20T06:57:07.703Z,77.98
2022-11-20T06:59:34.602Z,76.69
2022-11-20T07:02:01.570Z,77.29
2022-11-20T07:04:28.554Z,77.93
2022-11-20T07:06:55.490Z,76.25
2022-11-20T07:09:22.438Z,79.68
2022-11-20T07:11:49.400Z,79.02
2022-11-20T07:14:16.223Z,80.44
2022-11-20T07:16:43.057Z,79.12
2022-11-20T07:19:09.954Z,78.50
2022-11-20T07:21:37.123Z,77.47
2022-11-20T07:24:04.210Z,77.19
2022-11-20T07:26:31.131Z,75.96
2022-11-20T07:28:58.026Z,74.13
2022-11-20T07:31:24.954Z,72.77
2022-11-20T07:33:51.929Z,72.30
2022-11-20T07:36:18.830Z,70.76
2022-11-20T07:38:45.692Z,69.77
2022-11-20T07:41:12.588Z,67.42
2022-11-20T07:43:41.475Z,64.95
2022-11-20T07:46:08.675Z,65.90
2022-11-20T07:48:35.693Z,65.53
2022-11-20T07:51:02.781Z,64.34
2022-11-20T07:53:29.686Z,63.25
2022-11-20T07:56:00.269Z,63.22
2022-11-20T07:58:27.208Z,62.81
2022-11-20T08:00:54.187Z,61.64
2022-11-20T08:03:24.885Z,63.59
2022-11-20T08:05:52.634Z,63.00
2022-11-20T08:08:19.658Z,62.48
2022-11-20T08:10:46.954Z,62.53
2022-11-20T08:13:32.232Z,64.55
2022-11-20T08:15:59.102Z,63.28
2022-11-20T08:18:33.397Z,63.32
2022-11-20T08:21:05.212Z,63.05
2022-11-20T08:23:32.517Z,62.17
2022-11-20T08:25:59.434Z,62.53
2022-11-20T08:28:26.256Z,62.31
2022-11-20T08:31:00.027Z,64.22
2022-11-20T08:33:27.005Z,64.87
2022-11-20T08:35:53.948Z,64.07
2022-11-20T08:38:20.806Z,64.46
2022-11-20T08:41:07.653Z,64.84
2022-11-20T08:43:34.693Z,64.80
2022-11-20T08:46:01.739Z,64.89
2022-11-20T08:48:28.610Z,65.17
2022-11-20T08:53:25.371Z,64.05
2022-11-20T08:55:52.343Z,66.07
2022-11-20T08:58:19.251Z,65.91
2022-11-20T09:00:46.376Z,67.04
2022-11-20T09:03:14.403Z,68.81
2022-11-20T09:05:41.317Z,69.74
2022-11-20T09:08:08.204Z,67.87
2022-11-20T09:10:35.246Z,70.02
2022-11-20T09:13:02.638Z,71.46
2022-11-20T09:15:29.828Z,72.78
2022-11-20T09:17:59.509Z,71.24
2022-11-20T09:20:28.056Z,70.77
2022-11-20T09:22:54.903Z,68.66
2022-11-20T09:25:22.343Z,68.09
2022-11-20T09:27:49.340Z,67.98
2022-11-20T09:30:16.607Z,68.10
2022-11-20T09:32:44.179Z,68.17
2022-11-20T09:35:11.925Z,68.01
2022-11-20T09:37:39.125Z,68.51
2022-11-20T09:40:06.759Z,68.50
2022-11-20T09:42:36.445Z,69.04
2022-11-20T09:45:12.231Z,68.76
2022-11-20T09:48:00.744Z,67.96
2022-11-20T09:50:58.555Z,68.79
2022-11-20T09:53:41.988Z,68.05
2022-11-20T09:56:11.364Z,65.56
2022-11-20T09:58:51.568Z,65.95
2022-11-20T10:01:22.681Z,67.06
2022-11-20T10:04:05.397Z,64.83
2022-11-20T10:06:59.660Z,66.41
2022-11-20T10:09:37.815Z,66.52
2022-11-20T10:12:10.377Z,66.30
2022-11-20T10:15:00.280Z,66.31
2022-11-20T10:17:27.195Z,66.84
2022-11-20T10:20:18.370Z,67.33
2022-11-20T10:23:25.952Z,67.54
2022-11-20T10:26:02.585Z,66.75
2022-11-20T10:28:38.441Z,68.56
2022-11-20T10:31:11.525Z,67.39
2022-11-20T10:34:05.109Z,66.75
2022-11-20T10:36:47.347Z,66.92
2022-11-20T10:39:25.690Z,65.73
2022-11-20T10:41:54.792Z,65.98
2022-11-20T10:44:45.877Z,66.71
2022-11-20T10:47:19.874Z,66.19
2022-11-20T10:49:52.195Z,66.10
2022-11-20T10:52:52.830Z,67.55
2022-11-20T10:55:32.048Z,67.06
2022-11-20T10:58:31.056Z,66.82
2022-11-20T11:01:19.538Z,65.37
2022-11-20T11:03:47.180Z,64.40
2022-11-20T11:06:25.784Z,64.44
2022-11-20T11:08:57.845Z,64.59
2022-11-20T11:11:28.999Z,64.04
2022-11-20T11:14:14.516Z,64.61
2022-11-20T11:16:52.581Z,65.26
2022-11-20T11:19:19.574Z,64.62
2022-11-20T11:21:55.569Z,65.16
2022-11-20T11:24:43.259Z,66.14
2022-11-20T11:27:19.000Z,66.44
2022-11-20T11:29:47.540Z,67.13
2022-11-20T11:32:18.802Z,66.99
2022-11-20T11:34:45.727Z,66.46
2022-11-20T11:37:22.974Z,66.30
2022-11-20T11:40:03.834Z,65.33
2022-11-20T11:42:44.624Z,65.54
2022-11-20T11:45:18.555Z,65.81
2022-11-20T11:47:52.632Z,67.28
2022-11-20T11:50:25.865Z,66.85
2022-11-20T11:53:03.593Z,66.99
2022-11-20T11:55:59.328Z,66.91
2022-11-20T11:58:44.494Z,67.45
2022-11-20T12:01:26.759Z,67.89
2022-11-20T12:04:14.901Z,66.94
2022-11-20T12:06:46.853Z,66.82
2022-11-20T12:09:14.092Z,66.97
2022-11-20T12:12:20.031Z,66.95
2022-11-20T12:14:51.235Z,66.13
2022-11-20T12:17:18.989Z,66.08
2022-11-20T12:19:46.064Z,66.01
2022-11-20T12:22:26.707Z,65.65
2022-11-20T12:25:10.027Z,66.13
2022-11-20T12:28:12.486Z,65.23
2022-11-20T12:31:11.200Z,66.01
2022-11-20T12:34:10.666Z,64.79
2022-11-20T12:37:05.145Z,65.24
2022-11-20T12:39:36.758Z,67.05
2022-11-20T12:42:41.620Z,66.11
2022-11-20T12:45:33.126Z,67.32
2022-11-20T12:48:00.006Z,66.79
2022-11-20T12:51:15.218Z,65.67
2022-11-20T12:54:02.768Z,65.40
2022-11-20T12:56:40.370Z,64.58
2022-11-20T12:59:43.956Z,64.62
2022-11-20T13:02:49.390Z,64.96
2022-11-20T13:05:38.768Z,64.06
2022-11-20T13:08:16.460Z,63.75
2022-11-20T13:11:01.493Z,64.58
2022-11-20T13:13:37.271Z,65.09
2022-11-20T13:16:44.415Z,65.36
2022-11-20T13:19:16.792Z,64.94
2022-11-20T13:21:50.371Z,64.99
2022-11-20T13:24:20.807Z,64.39
2022-11-20T13:26:48.257Z,65.41
2022-11-20T13:29:21.404Z,64.77
2022-11-20T13:31:49.600Z,64.23
2022-11-20T13:34:28.057Z,64.72
2022-11-20T13:36:57.405Z,64.70
2022-11-20T13:39:50.588Z,65.76
2022-11-20T13:42:17.390Z,65.93
2022-11-20T13:44:51.839Z,69.46
2022-11-20T13:47:26.366Z,70.42
2022-11-20T13:49:57.733Z,70.22
2022-11-20T13:52:58.414Z,70.72
2022-11-20T13:55:39.109Z,70.75
2022-11-20T13:58:35.869Z,70.65
2022-11-20T14:01:11.184Z,71.51
2022-11-20T14:06:29.237Z,70.72
2022-11-20T14:08:57.190Z,70.54
2022-11-20T14:11:32.154Z,70.66
2022-11-20T14:14:06.212Z,70.10
2022-11-20T14:16:37.165Z,69.95
2022-11-20T14:19:27.106Z,70.79
2022-11-20T14:22:09.085Z,70.70
2022-11-20T14:24:36.125Z,70.74
2022-11-20T14:27:03.454Z,70.29
2022-11-20T14:29:36.735Z,69.50
2022-11-20T14:32:05.060Z,69.47
2022-11-20T14:34:36.782Z,69.55
2022-11-20T14:37:06.678Z,69.78
2022-11-20T14:39:39.083Z,70.39
2022-11-20T14:42:17.399Z,70.89
2022-11-20T14:44:45.673Z,71.58
2022-11-20T14:47:16.453Z,72.72
2022-11-20T14:49:44.057Z,71.87
2022-11-20T14:52:15.599Z,72.17
2022-11-20T14:54:56.407Z,70.86
2022-11-20T14:57:31.267Z,70.01
2022-11-20T15:00:24.943Z,68.09
2022-11-20T15:02:53.570Z,68.57
2022-11-20T15:05:23.730Z,66.84
2022-11-20T15:08:09.392Z,67.19
2022-11-20T15:10:36.723Z,67.61
2022-11-20T15:13:13.917Z,67.53
2022-11-20T15:15:45.860Z,66.37
2022-11-20T15:18:16.107Z,65.91
2022-11-20T15:20:44.288Z,66.09
2022-11-20T15:23:18.885Z,66.41
2022-11-20T15:25:46.973Z,65.75
2022-11-20T15:28:31.630Z,66.38
2022-11-20T15:30:58.947Z,67.50
2022-11-20T15:33:25.942Z,67.46
2022-11-20T15:35:53.014Z,68.23
2022-11-20T15:38:19.994Z,69.55
2022-11-20T15:40:47.121Z,69.37
2022-11-20T15:43:14.207Z,70.19
2022-11-20T15:45:41.098Z,71.78
2022-11-20T15:48:15.023Z,74.21
2022-11-20T15:51:08.118Z,74.88
2022-11-20T15:53:35.007Z,72.12
2022-11-20T15:56:02.462Z,70.42
2022-11-20T15:58:29.455Z,69.48
2022-11-20T16:00:57.300Z,70.66
2022-11-20T16:03:24.252Z,71.14
2022-11-20T16:05:51.144Z,72.05
2022-11-20T16:08:18.018Z,72.04
2022-11-20T16:10:45.137Z,72.32
2022-11-20T16:13:35.747Z,71.28
2022-11-20T16:16:06.548Z,71.50
2022-11-20T16:18:33.839Z,71.40
2022-11-20T16:21:00.994Z,72.18
2022-11-20T16:23:27.920Z,72.96
2022-11-20T16:25:54.933Z,73.34
2022-11-20T16:28:21.962Z,71.46
2022-11-20T16:30:48.879Z,70.93
2022-11-20T16:33:18.313Z,69.36
2022-11-20T16:35:45.303Z,67.38
2022-11-20T16:38:12.216Z,66.00
2022-11-20T16:40:39.157Z,67.01
2022-11-20T16:43:11.489Z,67.11
2022-11-20T16:45:45.462Z,66.13
2022-11-20T16:48:13.449Z,65.37
2022-11-20T16:50:54.509Z,63.75
2022-11-20T16:53:22.830Z,63.20
2022-11-20T16:55:49.671Z,62.98
2022-11-20T16:58:16.866Z,63.35
2022-11-20T17:00:49.965Z,62.79
2022-11-20T17:03:19.071Z,63.13
2022-11-20T17:05:46.129Z,64.42
2022-11-20T17:08:13.028Z,64.32
2022-11-20T17:10:39.899Z,63.71
2022-11-20T17:13:06.823Z,62.34
2022-11-20T17:15:33.991Z,61.39
2022-11-20T17:18:03.727Z,61.99
2022-11-20T17:20:31.082Z,61.95
2022-11-20T17:22:57.993Z,63.54
2022-11-20T17:25:24.878Z,62.18
2022-11-20T17:27:51.762Z,61.71
2022-11-20T17:30:18.691Z,61.75
2022-11-20T17:32:46.987Z,62.51
2022-11-20T17:35:14.165Z,64.86
2022-11-20T17:37:41.111Z,68.15
2022-11-20T17:40:08.133Z,69.26
2022-11-20T17:42:37.017Z,69.48
2022-11-20T17:45:05.138Z,71.24
2022-11-20T17:47:32.085Z,73.08
2022-11-20T17:49:59.002Z,74.34
2022-11-20T17:52:25.978Z,75.77
2022-11-20T17:54:56.064Z,77.72
2022-11-20T17:57:42.467Z,77.13
2022-11-20T18:00:11.152Z,77.06
2022-11-20T18:02:38.038Z,78.14
2022-11-20T18:05:05.382Z,78.11
2022-11-20T18:07:34.761Z,78.20
2022-11-20T18:10:05.185Z,79.06
2022-11-20T18:12:32.075Z,83.73
2022-11-20T18:14:59.034Z,88.63
2022-11-20T18:17:25.920Z,91.30
2022-11-20T18:20:14.050Z,93.57
2022-11-20T18:22:40.712Z,96.68
2022-11-20T18:25:07.950Z,96.65
2022-11-20T18:27:35.277Z,97.19
2022-11-20T18:30:02.376Z,99.74
2022-11-20T18:32:29.245Z,100.00
2022-11-20T18:34:56.139Z,100.00
2022-11-20T18:37:23.078Z,99.86
2022-11-20T18:39:50.529Z,100.00
2022-11-20T18:42:36.146Z,100.00
2022-11-20T18:45:04.520Z,100.00
2022-11-20T18:47:37.979Z,100.00
2022-11-20T18:50:07.433Z,100.00
2022-11-20T18:52:38.995Z,100.00
2022-11-20T18:55:06.955Z,99.70
2022-11-20T18:57:34.242Z,100.00
2022-11-20T19:00:07.944Z,100.00
2022-11-20T19:02:41.193Z,99.91
2022-11-20T19:05:12.770Z,97.81
2022-11-20T19:07:39.795Z,95.19
2022-11-20T19:10:07.573Z,93.50
2022-11-20T19:12:35.242Z,99.55
2022-11-20T19:15:02.133Z,98.33
2022-11-20T19:17:29.072Z,99.54
2022-11-20T19:19:56.025Z,97.60
2022-11-20T19:22:23.226Z,95.40
2022-11-20T19:24:50.182Z,94.75
2022-11-20T19:27:17.103Z,94.15
2022-11-20T19:29:44.150Z,94.82
2022-11-20T19:32:11.488Z,94.22
2022-11-20T19:34:38.396Z,93.24
2022-11-20T19:37:05.562Z,94.07
2022-11-20T19:39:32.552Z,94.21
2022-11-20T19:41:59.532Z,91.32
2022-11-20T19:44:26.400Z,89.79
2022-11-20T19:46:53.885Z,90.40
2022-11-20T19:49:21.374Z,91.45
2022-11-20T19:51:51.055Z,92.64
2022-11-20T19:54:18.035Z,91.28
2022-11-20T19:56:46.698Z,90.08
2022-11-20T19:59:14.266Z,92.16
2022-11-20T20:01:41.362Z,95.23
2022-11-20T20:04:08.328Z,98.72
2022-11-20T20:06:38.390Z,100.00
2022-11-20T20:09:12.038Z,100.00
2022-11-20T20:11:40.176Z,97.13
2022-11-20T20:14:10.867Z,95.99
2022-11-20T20:16:37.744Z,96.13
2022-11-20T20:19:05.678Z,96.00
2022-11-20T20:21:35.089Z,95.68
2022-11-20T20:24:02.723Z,96.85
2022-11-20T20:26:32.240Z,95.89
2022-11-20T20:29:00.994Z,94.62
2022-11-20T20:31:30.173Z,96.89
2022-11-20T20:33:57.262Z,99.53
2022-11-20T20:36:24.776Z,100.00
2022-11-20T20:38:56.525Z,100.00
2022-11-20T20:41:25.131Z,100.00
2022-11-20T20:44:11.287Z,100.00
2022-11-20T20:46:39.171Z,100.00
2022-11-20T20:49:07.430Z,100.00
2022-11-20T20:51:35.008Z,100.00
2022-11-20T20:54:02.334Z,100.00
2022-11-20T20:56:29.191Z,100.00
2022-11-20T20:58:56.102Z,100.00
2022-11-20T21:01:23.619Z,100.00
2022-11-20T21:03:50.593Z,100.00
2022-11-20T21:06:17.538Z,100.00
2022-11-20T21:08:44.859Z,100.00
2022-11-20T21:11:14.505Z,100.00
2022-11-20T21:13:43.465Z,100.00
2022-11-20T21:16:11.856Z,100.00
2022-11-20T21:18:39.002Z,100.00
2022-11-20T21:21:26.486Z,100.00
2022-11-20T21:23:53.969Z,100.00
2022-11-20T21:26:21.570Z,100.00
2022-11-20T21:28:50.072Z,100.00
2022-11-20T21:31:22.016Z,100.00
2022-11-20T21:33:50.865Z,100.00
2022-11-20T21:36:22.138Z,100.00
2022-11-20T21:38:51.830Z,100.00
2022-11-20T21:41:18.831Z,100.00
2022-11-20T21:43:51.526Z,100.00
2022-11-20T21:46:26.458Z,100.00
2022-11-20T21:48:53.468Z,100.00
2022-11-20T21:51:22.820Z,100.00
2022-11-20T21:53:51.342Z,100.00
2022-11-20T21:56:20.866Z,100.00
2022-11-20T21:58:49.007Z,100.00
2022-11-20T22:01:30.146Z,100.00
2022-11-20T22:04:02.222Z,100.00
2022-11-20T22:06:33.879Z,100.00
2022-11-20T22:09:01.949Z,100.00
2022-11-20T22:11:28.951Z,100.00
2022-11-20T22:14:14.262Z,100.00
2022-11-20T22:16:41.163Z,100.00
2022-11-20T22:19:08.311Z,100.00
2022-11-20T22:21:35.353Z,100.00
2022-11-20T22:24:02.633Z,100.00
2022-11-20T22:26:36.158Z,100.00
2022-11-20T22:29:06.749Z,100.00
2022-11-20T22:31:33.659Z,100.00
2022-11-20T22:34:02.701Z,100.00
2022-11-20T22:36:31.255Z,100.00
2022-11-20T22:38:58.932Z,100.00
2022-11-20T22:41:29.215Z,100.00
2022-11-20T22:44:02.684Z,100.00
2022-11-20T22:46:33.068Z,100.00
2022-11-20T22:49:02.902Z,100.00
2022-11-20T22:51:32.331Z,100.00
2022-11-20T22:53:59.844Z,100.00
2022-11-20T22:56:27.195Z,100.00
2022-11-20T22:58:54.603Z,100.00
2022-11-20T23:01:26.909Z,100.00
2022-11-20T23:03:58.960Z,100.00
2022-11-20T23:06:26.684Z,100.00
2022-11-20T23:08:54.084Z,100.00
2022-11-20T23:11:26.003Z,100.00
2022-11-20T23:13:59.048Z,100.00
2022-11-20T23:16:28.759Z,100.00
2022-11-20T23:19:01.485Z,100.00
2022-11-20T23:21:28.771Z,100.00
2022-11-20T23:23:57.591Z,100.00
2022-11-20T23:26:29.905Z,100.00
2022-11-20T23:28:58.639Z,100.00
2022-11-20T23:31:27.559Z,100.00
2022-11-20T23:33:54.693Z,100.00
2022-11-20T23:36:21.628Z,100.00
2022-11-20T23:38:48.457Z,100.00
2022-11-20T23:41:15.516Z,100.00
2022-11-20T23:43:42.488Z,100.00
2022-11-20T23:46:12.651Z,100.00
2022-11-20T23:48:45.200Z,100.00
2022-11-20T23:51:12.940Z,100.00
2022-11-20T23:53:40.114Z,100.00
2022-11-20T23:56:07.401Z,100.00
2022-11-20T23:58:36.897Z,100.00
